Pagrindinis puslapis
METAR-TAF:

METAR-TAF

Oro uostai :

Northway, Aliaska, Jungtinės Amerikos Valstijos

platuma: 62-57-40N, ilguma: 141-55-44W, Aukštis: 523 m

Dabartinis oras

Ataskaita buvo paskelbta 1 valandą ir 5 minutes, ne 21:53 UTC
Ramus vėjas
Temperatūra 10°C
Drėgmė 46%
Slėgis 1007 hPa
Matomumas: 16.1 km
Mažai debesys ne aukštis 9000 ft
Su prošvaistėmis ne aukštis 20000 ft

METAR: PAOR 202153Z 00000KT 10SM FEW090 BKN200 10/M01 A2974 RMK AO2 SLP087 T01001011 $

Laikas: 14:58 (22:58 UTC)

Prognozė

Ataskaita buvo paskelbta 5 valandos ir 18 minutes, ne 17:40 UTC
Prognozė galioja nuo 20 metu 18 UTC su 21 metu 18 UTC
Vėjas 3 kt nuo kintamojo kryptimis
Matomumas: 10 km
Mažai debesys ne aukštis 9000 ft
Su prošvaistėmis ne aukštis 20000 ft

TAF: PAOR 201740Z 2018/2118 VRB03KT P6SM FEW090 BKN200

Orai ataskaitas ir orų prognozės (METAR, TAF).

turimą stotys yra geltonos ir raudonos taškus žemėlapyje.

Perkelti pele per norėdami pamatyti stoties vardą.

Tada spustelėkite, norėdami matyti oro stebėjimo ir prognozės.

Norėdami pakeisti žemėlapį: spustelėkite ant žalios mygtukų su juodo kryžiaus žemyn,; žalią mygtuką su brūkšneliu, jei norite nutolinti; arba žalių rodyklių gretimoms žemėlapius.


METAR-TAF: